Time;durP1;ratioP1;P1;durP2;ratioP2;P2;SDS_P1;SDS_P2;PMS_P1;PMS_P2;Temp;Humidity;BMP_temperature;BMP_pressure;BME280_temperature;BME280_humidity;BME280_pressure;Samples;Min_cycle;Max_cycle;Signal;HPM_P1;HPM_P2
2022/11/29 00:02:28;;;;;;;46.00;21.50;;;;;;;1.16;85.68;101284.67;99608;1304;89531;-58
2022/11/29 00:05:04;;;;;;;32.70;18.20;;;;;;;1.19;85.74;101287.09;99405;1304;80048;-58
2022/11/29 00:07:34;;;;;;;29.80;17.50;;;;;;;1.24;85.52;101287.83;99634;1308;98335;-60
2022/11/29 00:10:10;;;;;;;31.00;18.50;;;;;;;1.22;85.59;101286.02;99636;1301;93981;-59
2022/11/29 00:12:39;;;;;;;42.40;21.30;;;;;;;1.26;85.57;101288.27;99606;1296;81386;-58
2022/11/29 00:15:11;;;;;;;32.20;18.70;;;;;;;1.27;85.54;101294.41;99574;1302;88397;-58
2022/11/29 00:17:42;;;;;;;31.10;18.40;;;;;;;1.31;85.64;101293.58;99378;1307;79195;-55
2022/11/29 00:20:15;;;;;;;30.80;18.60;;;;;;;1.32;85.42;101297.36;99360;1310;98151;-56
2022/11/29 00:22:46;;;;;;;31.40;17.50;;;;;;;1.27;85.49;101295.26;99374;1305;93687;-58
2022/11/29 00:25:19;;;;;;;32.40;17.20;;;;;;;1.22;85.33;101295.99;99360;1305;82424;-59
2022/11/29 00:27:51;;;;;;;34.90;18.70;;;;;;;1.19;85.46;101293.51;99354;1307;88857;-59
2022/11/29 00:30:23;;;;;;;30.60;17.20;;;;;;;1.17;85.37;101295.73;99387;1311;81405;-59
2022/11/29 00:32:53;;;;;;;33.00;18.50;;;;;;;1.19;85.33;101289.61;99391;1304;98280;-57
2022/11/29 00:35:26;;;;;;;30.20;16.80;;;;;;;1.21;85.32;101292.14;99373;1305;93500;-57
2022/11/29 00:37:56;;;;;;;28.40;17.20;;;;;;;1.23;85.43;101290.02;99422;1310;82499;-57
2022/11/29 00:40:24;;;;;;;31.50;17.80;;;;;;;1.15;85.34;101289.86;99379;1304;88934;-56
2022/11/29 00:42:57;;;;;;;34.10;17.70;;;;;;;1.17;85.31;101288.88;99415;1311;81192;-56
2022/11/29 00:45:31;;;;;;;28.20;16.90;;;;;;;1.16;85.40;101286.44;99428;1311;97533;-56
2022/11/29 00:48:01;;;;;;;29.10;16.60;;;;;;;1.19;85.40;101283.73;99426;1309;93544;-58
2022/11/29 00:50:33;;;;;;;30.90;17.20;;;;;;;1.15;85.31;101282.11;99409;1309;83007;-57
2022/11/29 00:53:03;;;;;;;33.30;17.30;;;;;;;1.15;85.41;101280.84;99398;1308;87662;-56
2022/11/29 00:55:35;;;;;;;33.00;17.60;;;;;;;1.18;85.30;101275.86;99751;1308;80872;-56
2022/11/29 00:58:08;;;;;;;30.80;17.40;;;;;;;1.20;85.32;101276.77;99724;1305;96641;-58
2022/11/29 01:00:40;;;;;;;28.50;17.10;;;;;;;1.21;85.33;101275.81;99718;1301;94285;-58
2022/11/29 01:03:12;;;;;;;32.90;17.50;;;;;;;1.20;85.30;101273.23;99972;1299;82037;-59
2022/11/29 01:05:42;;;;;;;;;;;;;;;1.18;85.24;101274.39;99931;1299;87267;-59
2022/11/29 01:08:16;;;;;;;27.80;16.20;;;;;;;1.18;85.31;101270.52;99960;1289;78920;-55
2022/11/29 01:10:45;;;;;;;38.50;19.70;;;;;;;1.19;85.25;101271.51;99974;1298;97712;-56
2022/11/29 01:13:25;;;;;;;31.90;17.50;;;;;;;1.25;85.23;101275.00;99983;1298;94070;-56
2022/11/29 01:16:00;;;;;;;31.30;17.60;;;;;;;1.23;85.31;101272.27;100136;1301;82813;-57
2022/11/29 01:18:32;;;;;;;32.00;16.50;;;;;;;1.20;85.31;101269.34;100162;1301;87232;-58
2022/11/29 01:21:05;;;;;;;28.70;17.10;;;;;;;1.23;85.38;101264.56;100192;1300;81840;-56
2022/11/29 01:23:36;;;;;;;38.50;18.80;;;;;;;1.25;85.33;101265.97;100209;1288;98480;-56
2022/11/29 01:26:13;;;;;;;33.90;18.90;;;;;;;1.26;85.50;101261.28;100219;1301;95846;-57
2022/11/29 01:28:48;;;;;;;30.70;16.80;;;;;;;1.28;85.25;101263.11;100227;1302;82470;-57
2022/11/29 01:31:22;;;;;;;30.90;17.50;;;;;;;1.28;85.28;101256.85;100234;1301;87429;-57
2022/11/29 01:33:52;;;;;;;27.30;16.50;;;;;;;1.30;85.16;101255.81;100187;1295;79522;-55
2022/11/29 01:36:27;;;;;;;35.70;18.50;;;;;;;1.28;85.32;101252.94;100214;1294;96979;-57
2022/11/29 01:38:58;;;;;;;35.20;19.50;;;;;;;1.27;85.26;101247.04;100231;1295;94543;-57
2022/11/29 01:41:32;;;;;;;34.10;19.50;;;;;;;1.24;85.20;101250.23;100221;1291;83546;-56
2022/11/29 01:44:08;;;;;;;33.80;19.20;;;;;;;1.23;85.26;101252.27;100282;1291;88973;-55
2022/11/29 01:46:40;;;;;;;32.70;18.10;;;;;;;1.20;85.25;101247.71;100197;1301;79206;-58
2022/11/29 01:49:15;;;;;;;;;;;;;;;1.14;85.23;101248.11;100176;1295;98445;-59
2022/11/29 01:51:51;;;;;;;32.30;17.60;;;;;;;1.13;85.45;101244.79;100184;1301;95259;-56
2022/11/29 01:54:22;;;;;;;34.00;19.00;;;;;;;1.10;85.45;101243.04;100209;1301;81156;-56
2022/11/29 01:56:58;;;;;;;31.90;18.00;;;;;;;1.09;85.52;101243.66;100172;1300;89106;-59
2022/11/29 01:59:32;;;;;;;32.40;17.80;;;;;;;1.12;85.51;101242.76;100174;1295;82203;-59
2022/11/29 02:02:14;;;;;;;34.20;18.80;;;;;;;1.15;85.62;101240.94;100193;1301;98112;-57
2022/11/29 02:04:46;;;;;;;34.90;19.90;;;;;;;1.18;85.47;101240.73;100180;1298;95538;-57
2022/11/29 02:07:16;;;;;;;33.10;19.30;;;;;;;1.18;85.50;101240.90;100228;1301;81452;-56
2022/11/29 02:09:46;;;;;;;34.50;20.80;;;;;;;1.18;85.52;101242.08;100226;1292;88507;-56
2022/11/29 02:12:30;;;;;;;33.10;19.50;;;;;;;1.16;85.53;101241.73;100146;1291;76859;-58
2022/11/29 02:15:24;;;;;;;34.60;19.50;;;;;;;1.15;85.43;101243.41;100266;1298;97740;-59
2022/11/29 02:18:08;;;;;;;37.10;20.50;;;;;;;1.12;85.70;101243.80;100318;1279;93834;-57
2022/11/29 02:21:16;;;;;;;30.90;17.90;;;;;;;1.12;85.57;101245.08;100317;1291;81913;-58
2022/11/29 02:24:35;;;;;;;33.60;18.00;;;;;;;1.12;85.57;101247.02;100380;1297;88580;-56
2022/11/29 02:28:31;;;;;;;35.90;19.20;;;;;;;1.14;85.70;101250.61;100297;1291;80127;-57
2022/11/29 02:32:03;;;;;;;33.10;18.00;;;;;;;1.16;85.65;101249.77;99719;1304;98435;-57
2022/11/29 02:35:15;;;;;;;33.50;19.10;;;;;;;1.15;85.79;101247.70;99557;1297;95198;-58
2022/11/29 02:38:18;;;;;;;34.90;19.30;;;;;;;1.21;85.82;101247.63;100238;1298;80545;-56
2022/11/29 02:41:29;;;;;;;32.60;16.00;;;;;;;1.27;85.66;101254.13;100268;1298;89026;-56
2022/11/29 02:44:23;;;;;;;33.70;19.40;;;;;;;1.21;85.75;101253.09;100318;1295;76230;-58
2022/11/29 02:47:15;;;;;;;32.90;19.30;;;;;;;1.23;85.59;101256.16;100328;1292;98754;-59
2022/11/29 02:50:12;;;;;;;36.30;18.80;;;;;;;1.17;85.55;101256.95;100246;1298;94670;-59
2022/11/29 02:52:56;;;;;;;36.00;19.60;;;;;;;1.17;85.72;101257.66;100306;1293;81214;-56
2022/11/29 02:55:35;;;;;;;31.60;18.40;;;;;;;1.18;85.88;101258.44;100319;1295;88562;-56
2022/11/29 02:58:18;;;;;;;33.70;18.10;;;;;;;1.19;85.48;101256.41;100338;1298;81780;-59
2022/11/29 03:01:07;;;;;;;33.50;19.10;;;;;;;1.20;85.60;101258.45;100314;1295;98152;-59
2022/11/29 03:03:44;;;;;;;31.50;17.50;;;;;;;1.28;85.76;101262.05;100133;1301;93763;-57
2022/11/29 03:06:32;;;;;;;28.90;16.70;;;;;;;1.29;85.69;101263.92;100306;1297;82494;-57
2022/11/29 03:09:07;;;;;;;;;;;;;;;1.27;85.55;101266.58;100384;1295;86667;-57
2022/11/29 03:11:47;;;;;;;34.40;20.20;;;;;;;1.35;85.35;101266.86;100325;1298;78752;-59
2022/11/29 03:14:37;;;;;;;35.20;19.00;;;;;;;1.34;85.48;101264.61;100252;1299;98538;-59
2022/11/29 03:17:25;;;;;;;30.80;17.40;;;;;;;1.30;85.40;101263.81;100231;1298;95692;-58
2022/11/29 03:20:24;;;;;;;33.40;17.70;;;;;;;1.24;85.64;101265.48;100263;1298;82706;-58
2022/11/29 03:23:14;;;;;;;34.70;18.40;;;;;;;1.20;85.56;101266.52;100303;1298;89851;-56
2022/11/29 03:25:49;;;;;;;35.30;19.40;;;;;;;1.17;85.73;101262.48;100278;1291;80879;-56
2022/11/29 03:28:29;;;;;;;32.50;18.70;;;;;;;1.24;85.53;101267.27;100276;1292;98086;-59
2022/11/29 03:31:10;;;;;;;29.20;16.70;;;;;;;1.29;85.70;101266.21;100331;1298;93730;-57
2022/11/29 03:33:52;;;;;;;32.80;18.20;;;;;;;1.34;85.80;101268.00;100434;1298;83147;-58
2022/11/29 03:36:37;;;;;;;29.30;17.20;;;;;;;1.35;85.79;101266.80;100417;1297;88376;-58
2022/11/29 03:39:17;;;;;;;31.60;17.50;;;;;;;1.34;85.56;101272.23;100394;1298;79906;-59
2022/11/29 03:41:54;;;;;;;31.90;18.60;;;;;;;1.30;85.78;101268.60;100398;1292;96022;-58
2022/11/29 03:44:32;;;;;;;32.20;17.60;;;;;;;1.29;85.61;101266.39;100383;1298;94577;-58
2022/11/29 03:47:09;;;;;;;34.80;18.30;;;;;;;1.25;85.37;101268.98;100403;1296;81928;-57
2022/11/29 03:49:49;;;;;;;33.40;18.50;;;;;;;1.24;85.46;101268.39;100402;1288;89008;-57
2022/11/29 03:52:24;;;;;;;33.90;17.20;;;;;;;1.25;85.46;101272.52;100346;1288;79713;-57
2022/11/29 03:55:11;;;;;;;29.90;17.20;;;;;;;1.28;85.68;101272.86;100370;1298;98586;-56
2022/11/29 03:58:04;;;;;;;29.10;16.70;;;;;;;1.31;85.70;101273.52;100340;1298;96110;-59
2022/11/29 04:01:01;;;;;;;28.30;15.20;;;;;;;1.34;85.65;101276.64;100353;1292;83251;-59
2022/11/29 04:04:25;;;;;;;28.00;15.30;;;;;;;1.41;85.53;101277.08;100345;1298;88965;-58
2022/11/29 04:07:15;;;;;;;28.70;17.00;;;;;;;1.35;85.38;101284.02;100367;1293;79832;-59
2022/11/29 04:10:14;;;;;;;31.80;17.50;;;;;;;1.27;85.62;101281.58;100344;1299;96434;-59
2022/11/29 04:13:16;;;;;;;27.00;17.00;;;;;;;1.24;85.61;101283.63;100325;1296;93892;-57
2022/11/29 04:16:27;;;;;;;30.70;17.10;;;;;;;1.19;85.72;101282.19;100377;1288;79644;-57
2022/11/29 04:20:08;;;;;;;28.20;16.90;;;;;;;1.22;85.72;101283.24;100391;1291;86351;-56
2022/11/29 04:23:38;;;;;;;27.60;15.90;;;;;;;1.22;85.71;101291.20;100375;1295;80655;-56
2022/11/29 04:26:53;;;;;;;28.20;15.80;;;;;;;1.26;85.68;101294.65;99992;1294;99655;-57
2022/11/29 04:30:04;;;;;;;30.10;16.60;;;;;;;1.31;85.57;101296.39;99962;1303;94879;-56
2022/11/29 04:33:29;;;;;;;27.20;15.90;;;;;;;1.27;85.61;101295.79;100387;1288;82523;-59
2022/11/29 04:36:32;;;;;;;27.70;15.90;;;;;;;1.27;85.69;101296.52;100349;1299;88759;-59
2022/11/29 04:39:32;;;;;;;33.00;16.40;;;;;;;1.24;85.45;101297.48;100354;1299;80382;-58
2022/11/29 04:42:52;;;;;;;30.80;16.80;;;;;;;1.18;85.77;101298.17;100304;1298;97973;-56
2022/11/29 04:46:05;;;;;;;30.90;16.70;;;;;;;1.18;85.64;101297.17;100345;1291;92698;-56
2022/11/29 04:49:13;;;;;;;29.10;16.00;;;;;;;1.18;85.72;101301.21;100380;1298;80917;-57
2022/11/29 04:52:07;;;;;;;28.80;15.30;;;;;;;1.23;85.54;101304.98;100317;1296;87726;-57
2022/11/29 04:54:43;;;;;;;28.20;16.10;;;;;;;1.16;85.81;101306.46;100372;1298;80671;-57
2022/11/29 04:57:27;;;;;;;29.70;16.60;;;;;;;1.22;85.68;101305.00;100371;1298;98810;-58
2022/11/29 05:00:08;;;;;;;31.60;16.40;;;;;;;1.17;85.89;101301.11;100374;1298;94745;-59
2022/11/29 05:02:49;;;;;;;25.70;15.70;;;;;;;1.21;85.91;101309.34;100408;1291;82625;-59
2022/11/29 05:05:35;;;;;;;25.80;16.20;;;;;;;1.16;85.70;101313.79;100346;1285;89537;-59
2022/11/29 05:08:32;;;;;;;32.40;17.90;;;;;;;1.05;85.55;101315.96;100435;1299;80934;-58
2022/11/29 05:11:13;;;;;;;32.00;18.00;;;;;;;1.00;85.92;101316.86;100412;1298;98918;-55
2022/11/29 05:13:54;;;;;;;36.30;20.90;;;;;;;0.98;85.74;101321.61;100333;1292;93982;-56
2022/11/29 05:16:46;;;;;;;33.70;17.30;;;;;;;1.02;85.73;101325.93;100370;1298;83120;-56
2022/11/29 05:19:44;;;;;;;28.90;16.10;;;;;;;1.06;85.89;101326.16;100362;1293;88766;-58
2022/11/29 05:22:31;;;;;;;29.50;16.60;;;;;;;1.14;86.00;101325.29;100369;1293;81070;-56
2022/11/29 05:25:31;;;;;;;27.80;16.70;;;;;;;1.19;85.98;101328.44;100364;1298;98755;-57
2022/11/29 05:28:16;;;;;;;28.80;16.60;;;;;;;1.23;85.87;101332.66;100345;1299;92944;-58
2022/11/29 05:31:25;;;;;;;31.50;17.50;;;;;;;1.23;85.77;101338.85;100345;1298;81949;-58
2022/11/29 05:34:29;;;;;;;32.80;17.90;;;;;;;1.23;85.77;101339.20;100351;1293;88297;-59
2022/11/29 05:37:11;;;;;;;35.00;18.70;;;;;;;1.19;85.86;101341.45;100355;1288;78185;-59
2022/11/29 05:39:58;;;;;;;34.00;18.00;;;;;;;1.15;85.95;101345.96;100362;1292;98642;-59
2022/11/29 05:43:04;;;;;;;39.10;20.60;;;;;;;1.13;85.69;101350.19;100330;1292;94013;-59
2022/11/29 05:45:50;;;;;;;38.00;20.20;;;;;;;1.08;85.92;101349.85;100361;1291;81839;-59
2022/11/29 05:48:24;;;;;;;;;;;;;;;1.12;85.86;101351.85;100365;1299;86255;-59
2022/11/29 05:51:17;;;;;;;33.30;18.40;;;;;;;1.10;86.01;101357.46;100362;1293;79819;-58
2022/11/29 05:54:01;;;;;;;36.40;17.90;;;;;;;1.13;85.96;101354.11;100379;1292;98767;-58
2022/11/29 05:56:49;;;;;;;37.10;19.90;;;;;;;1.08;85.93;101353.14;100356;1298;93277;-58
2022/11/29 05:59:27;;;;;;;34.30;18.20;;;;;;;1.08;86.08;101360.63;100391;1299;82219;-59
2022/11/29 06:02:12;;;;;;;35.40;18.80;;;;;;;1.14;86.02;101362.70;100358;1288;88109;-57
2022/11/29 06:05:02;;;;;;;37.40;19.10;;;;;;;1.20;86.13;101371.34;100331;1293;80840;-56
2022/11/29 06:07:43;;;;;;;34.70;19.40;;;;;;;1.19;86.16;101369.98;100358;1296;98184;-55
2022/11/29 06:10:22;;;;;;;33.10;18.60;;;;;;;1.21;86.14;101370.02;100334;1291;95493;-56
2022/11/29 06:13:21;;;;;;;32.80;17.90;;;;;;;1.29;85.95;101373.73;100349;1291;83028;-56
2022/11/29 06:16:42;;;;;;;34.30;18.50;;;;;;;1.29;86.02;101380.49;100359;1292;88837;-56
2022/11/29 06:19:38;;;;;;;37.80;19.90;;;;;;;1.27;86.16;101381.30;100333;1291;81125;-59
2022/11/29 06:22:27;;;;;;;33.00;19.50;;;;;;;1.32;85.94;101381.70;100386;1291;97412;-59
2022/11/29 06:25:21;;;;;;;35.10;19.40;;;;;;;1.32;86.07;101383.09;100401;1292;94672;-59
2022/11/29 06:28:12;;;;;;;36.00;19.00;;;;;;;1.34;86.05;101385.27;100347;1295;82670;-57
2022/11/29 06:31:00;;;;;;;34.10;18.30;;;;;;;1.33;85.79;101386.08;100397;1296;88014;-57
2022/11/29 06:33:38;;;;;;;32.60;19.30;;;;;;;1.26;85.83;101384.96;100303;1285;83024;-56
2022/11/29 06:36:25;;;;;;;38.40;20.70;;;;;;;1.24;86.05;101389.70;100373;1292;97143;-58
2022/11/29 06:38:55;;;;;;;39.30;20.90;;;;;;;1.28;86.04;101390.48;100342;1297;94870;-59
2022/11/29 06:41:28;;;;;;;36.80;20.60;;;;;;;1.27;86.01;101393.39;100385;1288;83708;-58
2022/11/29 06:43:58;;;;;;;35.90;19.30;;;;;;;1.29;86.04;101395.23;100383;1298;89177;-58
2022/11/29 06:46:43;;;;;;;31.20;18.50;;;;;;;1.27;86.11;101393.41;100346;1293;80997;-57
2022/11/29 06:49:22;;;;;;;38.20;20.10;;;;;;;1.28;86.10;101395.29;100321;1294;97299;-57
2022/11/29 06:52:10;;;;;;;35.60;20.40;;;;;;;1.33;85.96;101393.69;100335;1297;95692;-58
2022/11/29 06:55:06;;;;;;;36.60;20.90;;;;;;;1.30;86.04;101394.27;100354;1291;82609;-58
2022/11/29 06:57:54;;;;;;;33.40;19.20;;;;;;;1.34;86.14;101398.40;100383;1299;88944;-59
2022/11/29 07:00:29;;;;;;;39.70;22.10;;;;;;;1.35;86.15;101401.52;100324;1289;81034;-59
2022/11/29 07:03:16;;;;;;;;;;;;;;;1.39;85.93;101406.06;100402;1299;98409;-59
2022/11/29 07:05:50;;;;;;;36.80;20.40;;;;;;;1.34;86.12;101407.82;100324;1297;95126;-59
2022/11/29 07:08:24;;;;;;;34.80;19.60;;;;;;;1.35;86.07;101407.52;100358;1298;82201;-57
2022/11/29 07:10:58;;;;;;;37.40;20.70;;;;;;;1.33;86.08;101411.23;100373;1288;87023;-57
2022/11/29 07:13:34;;;;;;;34.60;19.10;;;;;;;1.32;86.03;101416.46;100434;1299;80114;-56
2022/11/29 07:16:21;;;;;;;39.20;22.30;;;;;;;1.31;85.98;101414.54;100417;1288;98049;-57
2022/11/29 07:18:57;;;;;;;;;;;;;;;1.27;86.02;101414.33;100330;1298;95316;-57
2022/11/29 07:21:47;;;;;;;34.20;19.70;;;;;;;1.23;86.13;101415.87;100390;1290;82516;-56
2022/11/29 07:24:35;;;;;;;34.70;19.60;;;;;;;1.20;86.26;101408.61;100432;1291;89219;-56
2022/11/29 07:27:16;;;;;;;29.00;16.90;;;;;;;1.17;86.29;101417.15;100379;1292;79264;-59
2022/11/29 07:30:01;;;;;;;35.50;21.10;;;;;;;1.16;86.21;101418.25;100368;1293;98070;-58
2022/11/29 07:32:56;;;;;;;36.10;20.00;;;;;;;1.18;86.06;101417.02;100097;1292;334929;-56
2022/11/29 07:35:40;;;;;;;35.90;20.30;;;;;;;1.19;86.06;101413.81;100338;1297;81486;-56
2022/11/29 07:38:21;;;;;;;35.40;19.50;;;;;;;1.12;86.14;101421.40;100275;1297;88379;-59
2022/11/29 07:40:59;;;;;;;34.60;19.70;;;;;;;1.15;86.16;101422.75;100293;1295;80473;-59
2022/11/29 07:43:46;;;;;;;34.00;18.80;;;;;;;1.18;86.13;101428.77;100263;1293;97850;-59
2022/11/29 07:46:16;;;;;;;33.30;18.90;;;;;;;1.16;86.31;101423.98;100247;1297;95228;-56
2022/11/29 07:48:48;;;;;;;36.00;19.40;;;;;;;1.18;86.16;101430.18;100284;1295;83558;-56
2022/11/29 07:51:17;;;;;;;34.20;19.30;;;;;;;1.22;86.31;101431.20;100295;1295;87679;-58
2022/11/29 07:53:48;;;;;;;32.40;19.20;;;;;;;1.26;86.25;101432.29;100278;1291;81710;-58
2022/11/29 07:56:20;;;;;;;31.60;19.40;;;;;;;1.28;86.15;101432.88;100297;1302;96426;-59
2022/11/29 07:58:53;;;;;;;33.60;18.30;;;;;;;1.34;86.23;101433.02;100282;1298;95716;-59
2022/11/29 08:01:24;;;;;;;36.00;19.90;;;;;;;1.36;86.12;101431.40;100212;1296;81612;-58
2022/11/29 08:03:53;;;;;;;36.50;19.60;;;;;;;1.38;85.86;101432.52;100318;1291;87806;-59
2022/11/29 08:06:28;;;;;;;37.70;19.20;;;;;;;1.33;85.97;101430.95;100325;1297;81290;-57
2022/11/29 08:09:03;;;;;;;39.30;21.20;;;;;;;1.33;85.87;101428.80;100307;1294;98996;-56
2022/11/29 08:11:33;;;;;;;32.70;18.90;;;;;;;1.34;85.86;101431.37;100269;1298;94980;-59
2022/11/29 08:14:04;;;;;;;37.80;20.40;;;;;;;1.36;85.82;101429.52;100318;1297;82486;-59
2022/11/29 08:16:35;;;;;;;35.90;19.60;;;;;;;1.40;85.89;101428.30;100318;1297;87186;-58
2022/11/29 08:19:07;;;;;;;33.00;19.00;;;;;;;1.42;85.73;101428.68;100318;1292;80998;-58
2022/11/29 08:21:42;;;;;;;35.20;19.70;;;;;;;1.44;85.90;101430.86;100298;1298;98315;-59
2022/11/29 08:24:14;;;;;;;32.10;19.00;;;;;;;1.48;85.89;101430.61;100268;1293;95245;-59
2022/11/29 08:26:45;;;;;;;31.80;17.60;;;;;;;1.54;85.92;101431.92;100295;1295;82592;-61
2022/11/29 08:29:15;;;;;;;34.20;18.00;;;;;;;1.55;85.65;101438.77;100306;1292;87176;-60
2022/11/29 08:31:51;;;;;;;32.30;19.20;;;;;;;1.54;85.54;101433.89;100300;1294;79528;-57
2022/11/29 08:34:24;;;;;;;29.20;16.90;;;;;;;1.58;85.53;101432.17;100279;1294;98851;-58
2022/11/29 08:36:56;;;;;;;30.40;18.10;;;;;;;1.56;85.30;101435.14;100315;1285;95410;-57
2022/11/29 08:39:30;;;;;;;33.00;19.70;;;;;;;1.56;85.40;101432.16;100304;1297;80983;-58
2022/11/29 08:41:59;;;;;;;32.00;18.90;;;;;;;1.56;85.26;101436.94;100304;1294;89012;-56
2022/11/29 08:44:29;;;;;;;37.90;22.10;;;;;;;1.52;85.26;101436.54;100304;1297;80431;-57
2022/11/29 08:50:03;;;;;;;28.30;17.20;;;;;;;1.53;85.06;101441.98;100332;1298;94243;-56
2022/11/29 08:55:28;;;;;;;33.30;19.40;;;;;;;1.53;84.92;101446.16;100136;1294;89150;-59
2022/11/29 08:58:07;;;;;;;32.20;19.30;;;;;;;1.52;85.16;101440.98;100310;1294;81171;-58
2022/11/29 09:00:39;;;;;;;30.60;18.40;;;;;;;1.54;85.24;101440.42;100306;1299;97194;-60
2022/11/29 09:06:07;;;;;;;42.30;21.80;;;;;;;1.65;85.21;101433.15;100276;1290;82319;-58
2022/11/29 09:08:42;;;;;;;32.00;19.20;;;;;;;1.74;85.23;101427.51;100338;1292;87075;-60
2022/11/29 09:11:20;;;;;;;47.60;23.20;;;;;;;1.83;85.04;101425.79;100294;1293;80472;-58
2022/11/29 09:13:55;;;;;;;39.80;21.40;;;;;;;1.84;84.80;101423.40;100268;1295;99495;-59
2022/11/29 09:16:28;;;;;;;34.50;19.10;;;;;;;1.90;84.71;101427.95;100242;1285;95356;-57
2022/11/29 09:18:58;;;;;;;42.80;22.70;;;;;;;1.93;84.59;101426.91;100257;1301;82978;-57
2022/11/29 09:21:30;;;;;;;33.60;19.80;;;;;;;1.91;84.48;101432.01;100311;1297;87822;-60
2022/11/29 09:24:05;;;;;;;30.20;19.10;;;;;;;1.87;84.40;101426.95;100129;1294;82119;-61
2022/11/29 09:26:33;;;;;;;;;;;;;;;1.87;84.52;101430.70;100314;1294;99438;-60
2022/11/29 09:29:05;;;;;;;29.90;16.70;;;;;;;1.82;84.27;101427.86;100322;1294;94925;-60
2022/11/29 09:31:34;;;;;;;31.10;17.90;;;;;;;1.72;84.29;101424.95;100301;1295;82035;-58
2022/11/29 09:34:06;;;;;;;34.00;20.20;;;;;;;1.71;84.09;101425.73;100256;1298;86952;-58
2022/11/29 09:36:35;;;;;;;37.90;19.20;;;;;;;1.73;84.41;101429.70;100310;1297;81423;-57
2022/11/29 09:39:12;;;;;;;30.30;18.50;;;;;;;1.74;84.34;101428.94;100255;1294;99394;-57
2022/11/29 09:42:08;;;;;;;31.20;18.80;;;;;;;1.77;84.23;101418.92;100247;1292;94939;-57
2022/11/29 09:44:59;;;;;;;27.90;17.70;;;;;;;1.83;84.26;101423.52;100185;1294;79809;-57
2022/11/29 09:47:57;;;;;;;36.00;20.40;;;;;;;1.89;84.46;101423.79;100322;1295;87779;-58
2022/11/29 09:50:34;;;;;;;29.50;17.00;;;;;;;1.95;83.93;101428.48;100279;1295;80227;-56
2022/11/29 09:53:26;;;;;;;30.50;18.30;;;;;;;2.02;84.15;101426.73;100319;1284;97101;-60
2022/11/29 09:56:17;;;;;;;37.00;21.10;;;;;;;2.11;83.94;101425.58;100178;1291;96958;-59
2022/11/29 09:58:56;;;;;;;33.70;19.60;;;;;;;2.13;83.88;101427.36;100354;1294;81868;-60
2022/11/29 10:01:32;;;;;;;32.30;18.50;;;;;;;2.10;83.56;101424.16;100353;1294;87022;-57
2022/11/29 10:04:10;;;;;;;32.00;18.30;;;;;;;2.08;83.34;101422.90;100306;1295;77645;-57
2022/11/29 10:06:55;;;;;;;35.40;20.00;;;;;;;2.02;83.18;101425.13;100267;1292;96525;-60
2022/11/29 10:09:33;;;;;;;33.10;18.60;;;;;;;2.03;83.23;101419.39;100271;1301;93919;-57
2022/11/29 10:12:17;;;;;;;30.70;17.50;;;;;;;2.04;83.11;101415.79;100287;1294;82596;-58
2022/11/29 10:14:56;;;;;;;27.10;16.80;;;;;;;2.04;82.53;101418.41;100252;1294;88566;-58
2022/11/29 10:17:36;;;;;;;29.90;17.10;;;;;;;2.06;82.77;101412.44;100315;1294;79843;-57
2022/11/29 10:20:17;;;;;;;28.50;16.60;;;;;;;2.03;82.77;101412.83;100282;1292;99210;-57
2022/11/29 10:22:55;;;;;;;27.10;16.80;;;;;;;2.10;82.94;101409.26;100267;1294;95368;-57
2022/11/29 10:25:29;;;;;;;29.40;17.70;;;;;;;2.17;82.83;101405.40;100300;1294;81837;-57
2022/11/29 10:27:59;;;;;;;27.20;17.50;;;;;;;2.26;82.92;101411.67;100380;1292;89333;-61
2022/11/29 10:30:34;;;;;;;30.40;18.10;;;;;;;2.29;82.49;101409.80;100353;1300;79427;-60
2022/11/29 10:33:17;;;;;;;30.60;19.70;;;;;;;2.27;82.58;101412.84;100297;1292;98661;-60
2022/11/29 10:35:48;;;;;;;30.50;18.90;;;;;;;2.26;82.66;101414.30;100246;1293;94002;-60
2022/11/29 10:38:17;;;;;;;28.10;18.00;;;;;;;2.27;82.59;101410.68;100264;1294;81085;-60
2022/11/29 10:40:56;;;;;;;27.80;17.20;;;;;;;2.27;82.51;101411.78;100251;1294;88812;-60
2022/11/29 10:43:26;;;;;;;28.30;17.00;;;;;;;2.23;82.42;101411.89;100262;1295;80887;-58
2022/11/29 10:45:57;;;;;;;29.70;18.00;;;;;;;2.19;82.52;101413.98;100275;1294;99176;-58
2022/11/29 10:48:32;;;;;;;33.10;19.40;;;;;;;2.23;82.53;101415.13;100291;1298;95417;-57
2022/11/29 10:51:02;;;;;;;29.20;17.10;;;;;;;2.23;82.41;101417.59;100318;1284;83387;-60
2022/11/29 10:53:40;;;;;;;28.90;18.20;;;;;;;2.27;82.72;101421.52;100257;1297;88792;-60
2022/11/29 10:56:21;;;;;;;28.90;18.70;;;;;;;2.36;82.52;101418.96;100326;1297;78515;-58
2022/11/29 10:59:04;;;;;;;29.60;18.80;;;;;;;2.37;82.29;101421.91;100303;1294;97102;-57
2022/11/29 11:01:43;;;;;;;26.70;18.50;;;;;;;2.34;82.33;101420.84;100299;1294;96139;-58
2022/11/29 11:04:37;;;;;;;28.70;17.00;;;;;;;2.42;82.26;101421.49;100342;1285;80990;-58
2022/11/29 11:07:21;;;;;;;29.50;18.10;;;;;;;2.36;81.80;101418.89;100296;1294;87891;-58
2022/11/29 11:09:56;;;;;;;29.90;18.30;;;;;;;2.31;81.59;101415.95;100303;1294;78318;-58
2022/11/29 11:12:29;;;;;;;46.70;23.00;;;;;;;2.23;81.67;101415.78;100307;1292;97357;-58
2022/11/29 11:15:26;;;;;;;33.40;20.50;;;;;;;2.16;81.75;101418.45;100275;1295;94204;-57
2022/11/29 11:18:05;;;;;;;26.50;17.50;;;;;;;2.19;81.97;101422.12;100332;1294;80684;-56
2022/11/29 11:20:44;;;;;;;28.80;17.60;;;;;;;2.20;81.95;101425.45;100261;1290;87676;-56
2022/11/29 11:23:30;;;;;;;28.80;17.90;;;;;;;2.25;82.00;101423.49;100276;1291;81331;-56
2022/11/29 11:26:14;;;;;;;26.60;17.30;;;;;;;2.26;81.84;101422.34;100286;1301;97927;-58
2022/11/29 11:28:50;;;;;;;29.70;17.40;;;;;;;2.31;82.01;101420.70;100259;1298;95437;-60
2022/11/29 11:31:29;;;;;;;26.50;17.10;;;;;;;2.40;81.94;101420.56;100315;1285;82042;-57
2022/11/29 11:34:18;;;;;;;28.30;18.90;;;;;;;2.44;81.92;101417.63;100319;1285;88579;-57
2022/11/29 11:36:50;;;;;;;29.50;17.20;;;;;;;2.47;81.84;101416.54;100320;1294;79135;-59
2022/11/29 11:39:24;;;;;;;26.10;17.50;;;;;;;2.40;81.63;101417.41;100294;1286;98330;-59
2022/11/29 11:44:51;;;;;;;28.70;18.40;;;;;;;2.34;81.85;101423.48;100285;1291;81223;-58
2022/11/29 11:47:26;;;;;;;32.50;20.90;;;;;;;2.39;81.85;101425.98;100309;1294;88105;-57
2022/11/29 11:50:13;;;;;;;26.20;18.40;;;;;;;2.45;81.76;101424.88;100308;1292;81910;-57
2022/11/29 11:52:51;;;;;;;25.10;15.80;;;;;;;2.41;81.76;101429.74;100318;1294;98026;-56
2022/11/29 11:55:43;;;;;;;24.50;15.40;;;;;;;2.46;81.63;101426.95;100285;1291;95349;-56
2022/11/29 11:58:27;;;;;;;26.10;17.40;;;;;;;2.47;81.69;101429.15;100306;1295;81170;-57
2022/11/29 12:01:14;;;;;;;27.50;16.60;;;;;;;2.52;81.59;101430.41;100299;1292;88428;-58
2022/11/29 12:04:00;;;;;;;25.00;16.40;;;;;;;2.53;81.65;101433.64;100308;1294;77965;-57
2022/11/29 12:06:43;;;;;;;25.50;16.20;;;;;;;2.58;81.29;101435.04;100318;1292;97355;-56
2022/11/29 12:09:33;;;;;;;23.70;15.50;;;;;;;2.51;80.83;101435.24;100309;1298;95206;-57
2022/11/29 12:12:14;;;;;;;25.30;15.10;;;;;;;2.42;80.69;101440.34;100308;1294;83757;-57
2022/11/29 12:14:55;;;;;;;25.10;16.20;;;;;;;2.35;80.82;101436.06;100312;1298;89334;-57
2022/11/29 12:17:38;;;;;;;25.10;16.40;;;;;;;2.33;80.71;101438.70;100296;1294;80281;-57
2022/11/29 12:20:24;;;;;;;24.30;16.30;;;;;;;2.25;80.71;101436.61;100313;1294;97439;-57
2022/11/29 12:23:23;;;;;;;23.90;16.30;;;;;;;2.19;80.80;101437.37;100258;1292;92995;-59
2022/11/29 12:26:04;;;;;;;26.20;15.30;;;;;;;2.16;80.86;101437.64;100266;1297;83220;-58
2022/11/29 12:28:41;;;;;;;26.70;16.10;;;;;;;2.13;80.92;101441.20;100296;1292;88863;-61
2022/11/29 12:31:37;;;;;;;25.00;17.00;;;;;;;2.15;80.97;101442.67;100305;1292;81628;-58
2022/11/29 12:34:27;;;;;;;28.50;17.30;;;;;;;2.14;81.30;101443.98;100328;1295;97111;-58